Time;durP1;ratioP1;P1;durP2;ratioP2;P2;SDS_P1;SDS_P2;PMS_P1;PMS_P2;Temp;Humidity;BMP_temperature;BMP_pressure;BME280_temperature;BME280_humidity;BME280_pressure;Samples;Min_cycle;Max_cycle;Signal;HPM_P1;HPM_P2
2020/12/29 00:01:50;;;;;;;7.97;6.47;;;;;;;8.28;56.58;97908.19;4932638;28;108456;-69
2020/12/29 00:04:20;;;;;;;9.32;6.18;;;;;;;8.24;56.70;97901.50;4933101;28;123818;-69
2020/12/29 00:06:48;;;;;;;10.57;7.20;;;;;;;8.20;57.03;97900.06;4932836;28;123400;-69
2020/12/29 00:09:17;;;;;;;9.45;6.47;;;;;;;8.18;56.68;97902.00;4934428;28;109669;-69
2020/12/29 00:11:44;;;;;;;10.23;6.97;;;;;;;8.16;56.94;97903.94;4936026;28;109001;-69
2020/12/29 00:14:12;;;;;;;8.52;6.75;;;;;;;8.13;57.12;97904.19;4933049;28;123747;-69
2020/12/29 00:16:39;;;;;;;8.82;6.80;;;;;;;8.12;57.11;97902.53;4933358;28;123514;-70
2020/12/29 00:19:10;;;;;;;11.75;7.07;;;;;;;8.09;57.23;97900.13;4934145;28;110941;-69
2020/12/29 00:21:38;;;;;;;11.23;8.00;;;;;;;8.10;57.19;97899.16;4932099;28;109603;-69
2020/12/29 00:24:05;;;;;;;13.02;8.60;;;;;;;8.10;57.16;97899.16;4931594;28;124513;-69
2020/12/29 00:26:32;;;;;;;12.82;9.13;;;;;;;8.10;57.45;97896.50;4932077;28;122382;-69
2020/12/29 00:28:58;;;;;;;11.63;8.93;;;;;;;8.10;57.51;97894.72;4934394;28;109561;-69
2020/12/29 00:31:25;;;;;;;10.80;8.55;;;;;;;8.11;57.28;97895.56;4933386;28;109348;-69
2020/12/29 00:33:56;;;;;;;11.82;8.38;;;;;;;8.12;57.59;97900.72;4929408;28;123775;-69
2020/12/29 00:36:24;;;;;;;12.38;8.60;;;;;;;8.13;57.44;97898.91;4932406;28;123533;-69
2020/12/29 00:38:51;;;;;;;10.48;7.53;;;;;;;8.15;57.18;97907.53;4931466;28;108558;-69
2020/12/29 00:41:18;;;;;;;11.85;8.15;;;;;;;8.15;57.25;97910.16;4932946;28;108666;-69
2020/12/29 00:43:45;;;;;;;9.90;6.70;;;;;;;8.14;57.09;97905.88;4932257;28;124118;-69
2020/12/29 00:46:15;;;;;;;9.27;6.90;;;;;;;8.12;56.95;97903.34;4934739;28;123178;-69
2020/12/29 00:48:42;;;;;;;7.82;6.40;;;;;;;8.11;57.12;97900.84;4930341;28;108909;-69
2020/12/29 00:51:12;;;;;;;9.15;7.03;;;;;;;8.08;57.20;97906.34;4929482;28;108828;-69
2020/12/29 00:53:47;;;;;;;10.63;7.13;;;;;;;8.05;57.08;97902.16;4931333;28;122814;-69
2020/12/29 00:56:14;;;;;;;8.55;6.90;;;;;;;8.03;57.13;97903.28;4932761;28;123890;-69
2020/12/29 00:58:41;;;;;;;11.75;7.55;;;;;;;8.02;57.16;97906.84;4933956;28;109420;-69
2020/12/29 01:01:11;;;;;;;10.20;7.80;;;;;;;8.01;56.93;97915.75;4932227;28;108842;-69
2020/12/29 01:03:57;;;;;;;8.13;6.78;;;;;;;7.98;57.32;97922.91;4932920;28;124629;-69
2020/12/29 01:06:28;;;;;;;12.77;8.00;;;;;;;7.96;57.31;97922.19;4931979;28;123062;-69
2020/12/29 01:08:58;;;;;;;9.95;7.30;;;;;;;7.95;57.19;97928.44;4932504;28;109315;-69
2020/12/29 01:11:32;;;;;;;9.27;6.85;;;;;;;7.94;57.29;97929.41;4933246;28;109231;-70
2020/12/29 01:13:59;;;;;;;11.63;7.75;;;;;;;7.94;57.07;97936.47;4932612;28;124055;-70
2020/12/29 01:16:28;;;;;;;10.80;7.85;;;;;;;7.92;57.01;97939.22;4929497;28;123813;-69
2020/12/29 01:18:56;;;;;;;10.82;8.25;;;;;;;7.87;57.20;97936.13;4931619;28;108302;-69
2020/12/29 01:21:23;;;;;;;12.98;8.10;;;;;;;7.84;57.39;97931.13;4934334;28;109760;-69
2020/12/29 01:23:50;;;;;;;9.65;7.47;;;;;;;7.82;57.23;97933.03;4932944;28;124063;-69
2020/12/29 01:26:23;;;;;;;11.02;7.47;;;;;;;7.82;57.49;97942.72;4934034;28;123830;-69
2020/12/29 01:28:50;;;;;;;9.07;7.18;;;;;;;7.83;57.61;97939.97;4933153;28;109494;-69
2020/12/29 01:31:24;;;;;;;9.23;6.93;;;;;;;7.82;57.42;97954.13;4932115;28;108187;-69
2020/12/29 01:33:51;;;;;;;9.80;6.93;;;;;;;7.83;57.54;97944.41;4932644;28;123981;-69
2020/12/29 01:36:18;;;;;;;8.90;7.07;;;;;;;7.83;57.32;97954.94;4931716;28;120679;-70
2020/12/29 01:38:45;;;;;;;9.77;7.03;;;;;;;7.83;57.63;97958.41;4933962;28;108334;-69
2020/12/29 01:41:11;;;;;;;10.25;7.38;;;;;;;7.82;57.62;97954.13;4933644;28;109226;-69
2020/12/29 01:43:39;;;;;;;8.30;6.57;;;;;;;7.83;57.66;97966.31;4932466;28;123758;-69
2020/12/29 01:46:05;;;;;;;10.45;7.00;;;;;;;7.83;57.45;97961.03;4932977;28;123975;-69
2020/12/29 01:48:32;;;;;;;11.45;8.10;;;;;;;7.83;57.59;97962.84;4930193;28;109192;-69
2020/12/29 01:50:58;;;;;;;11.70;7.93;;;;;;;7.83;57.56;97963.69;4929899;28;108772;-69
2020/12/29 01:53:25;;;;;;;9.85;7.35;;;;;;;7.84;57.61;97967.16;4930337;28;125315;-70
2020/12/29 01:55:52;;;;;;;10.40;7.55;;;;;;;7.84;57.60;97973.28;4931573;28;123975;-69
2020/12/29 01:58:19;;;;;;;11.13;7.45;;;;;;;7.84;57.73;97968.00;4929776;28;109481;-69
2020/12/29 02:00:47;;;;;;;14.80;7.55;;;;;;;7.84;57.84;97965.38;4932674;28;109519;-69
2020/12/29 02:03:15;;;;;;;12.18;8.02;;;;;;;7.86;57.98;97971.34;4945279;28;123128;-69
2020/12/29 02:05:47;;;;;;;11.30;7.63;;;;;;;7.88;57.98;97973.88;4931774;28;124527;-69
2020/12/29 02:08:18;;;;;;;13.30;7.53;;;;;;;7.89;57.70;97975.53;4933859;28;108916;-69
2020/12/29 02:10:44;;;;;;;9.02;6.70;;;;;;;7.88;57.77;97969.44;4931919;28;109193;-69
2020/12/29 02:13:11;;;;;;;11.35;7.15;;;;;;;7.89;57.81;97981.66;4928164;28;124741;-69
2020/12/29 02:15:37;;;;;;;11.38;7.35;;;;;;;7.89;57.96;97970.25;4931930;28;123866;-69
2020/12/29 02:18:04;;;;;;;11.88;7.22;;;;;;;7.89;58.00;97979.03;4931439;28;109131;-69
2020/12/29 02:20:31;;;;;;;9.00;6.35;;;;;;;7.90;57.83;97983.31;4932838;28;108896;-69
2020/12/29 02:22:57;;;;;;;9.20;7.28;;;;;;;7.90;57.87;97983.31;4930499;28;124230;-69
2020/12/29 02:25:24;;;;;;;10.32;7.47;;;;;;;7.92;58.08;97986.66;4932220;28;123704;-69
2020/12/29 02:27:51;;;;;;;9.07;6.60;;;;;;;7.93;57.84;97990.97;4933170;28;109380;-69
2020/12/29 02:30:19;;;;;;;8.82;6.70;;;;;;;7.94;57.89;97984.72;4928822;28;109189;-69
2020/12/29 02:32:46;;;;;;;10.63;6.97;;;;;;;7.95;57.89;97981.16;4931477;28;124053;-69
2020/12/29 02:35:17;;;;;;;10.35;6.63;;;;;;;7.96;57.90;97988.09;4931962;28;123327;-69
2020/12/29 02:37:44;;;;;;;10.80;7.00;;;;;;;7.97;57.92;97989.78;4936445;28;108906;-69
2020/12/29 02:40:11;;;;;;;9.13;6.75;;;;;;;7.96;57.83;97993.34;4936184;28;108996;-69
2020/12/29 02:42:38;;;;;;;10.73;6.68;;;;;;;7.98;57.64;97991.44;4934512;28;124191;-69
2020/12/29 02:45:06;;;;;;;10.38;6.65;;;;;;;7.98;57.93;97996.69;4933994;28;125317;-70
2020/12/29 02:47:32;;;;;;;11.60;6.55;;;;;;;7.98;58.03;97999.34;4935540;28;110661;-69
2020/12/29 02:49:59;;;;;;;9.23;6.43;;;;;;;7.98;57.49;97996.69;4936608;28;109924;-69
2020/12/29 02:52:26;;;;;;;9.35;6.28;;;;;;;7.97;57.82;98000.31;4936364;28;124838;-69
2020/12/29 02:54:52;;;;;;;9.63;6.88;;;;;;;7.96;57.83;98003.06;4946644;23;124009;-75
2020/12/29 02:57:19;;;;;;;9.60;6.65;;;;;;;7.96;57.74;97998.63;4937431;28;109135;-75
2020/12/29 02:59:45;;;;;;;10.60;6.38;;;;;;;7.97;57.92;98005.59;4936411;28;108038;-75
2020/12/29 03:02:12;;;;;;;8.02;6.30;;;;;;;7.98;57.79;98007.25;4936938;28;124220;-76
2020/12/29 03:04:38;;;;;;;8.02;6.32;;;;;;;7.98;57.56;98016.97;4937192;28;124000;-75
2020/12/29 03:07:05;;;;;;;9.65;6.53;;;;;;;7.98;57.53;98023.06;4937218;28;108912;-75
2020/12/29 03:09:31;;;;;;;9.30;6.57;;;;;;;7.97;57.83;98021.41;4933350;28;109225;-75
2020/12/29 03:11:58;;;;;;;11.00;6.95;;;;;;;7.98;57.76;98028.31;4935966;28;123870;-75
2020/12/29 03:14:24;;;;;;;10.25;6.88;;;;;;;7.96;57.84;98030.25;4934633;28;123716;-76
2020/12/29 03:16:51;;;;;;;10.23;6.82;;;;;;;7.94;57.92;98032.16;4937002;28;108614;-75
2020/12/29 03:19:23;;;;;;;9.15;6.53;;;;;;;7.93;58.08;98041.06;4934848;28;108263;-76
2020/12/29 03:21:50;;;;;;;9.13;6.88;;;;;;;7.91;57.46;98044.75;4937932;28;124010;-75
2020/12/29 03:24:17;;;;;;;8.93;6.55;;;;;;;7.92;57.78;98046.44;4934454;28;122487;-75
2020/12/29 03:26:44;;;;;;;10.73;7.20;;;;;;;7.90;57.63;98045.72;4938183;28;108759;-75
2020/12/29 03:29:11;;;;;;;9.70;6.93;;;;;;;7.88;58.02;98051.13;4938770;28;109226;-75
2020/12/29 03:31:43;;;;;;;12.60;6.45;;;;;;;7.88;57.97;98048.47;4953618;28;123618;-75
2020/12/29 03:34:16;;;;;;;9.10;6.53;;;;;;;7.89;57.74;98050.16;4955533;28;123120;-75
2020/12/29 03:36:43;;;;;;;9.43;6.55;;;;;;;7.88;57.64;98059.00;4937158;28;110369;-75
2020/12/29 03:39:09;;;;;;;10.48;6.88;;;;;;;7.87;57.75;98062.59;4942794;28;109470;-75
2020/12/29 03:41:36;;;;;;;9.75;6.57;;;;;;;7.88;57.79;98072.19;4941123;28;122772;-75
2020/12/29 03:44:03;;;;;;;9.07;6.78;;;;;;;7.88;57.77;98074.81;4937478;28;124130;-76
2020/12/29 03:46:30;;;;;;;9.13;6.18;;;;;;;7.89;57.90;98076.53;4937868;28;109173;-75
2020/12/29 03:48:57;;;;;;;8.35;6.50;;;;;;;7.89;58.01;98076.53;4936586;28;109015;-75
2020/12/29 03:51:23;;;;;;;8.70;6.10;;;;;;;7.90;57.89;98080.81;4936728;28;124410;-75
2020/12/29 03:53:50;;;;;;;8.60;6.00;;;;;;;7.90;57.77;98078.19;4936912;28;124492;-75
2020/12/29 03:56:16;;;;;;;10.57;6.05;;;;;;;7.89;57.93;98076.53;4936057;28;109496;-75
2020/12/29 03:58:43;;;;;;;9.75;6.20;;;;;;;7.89;58.01;98087.06;4935836;28;109977;-75
2020/12/29 04:01:10;;;;;;;9.02;6.30;;;;;;;7.87;58.06;98080.22;4934760;28;123009;-75
2020/12/29 04:03:37;;;;;;;9.88;6.30;;;;;;;7.86;57.71;98079.38;4934919;28;124228;-75
2020/12/29 04:06:04;;;;;;;7.97;5.95;;;;;;;7.85;57.67;98085.59;4936028;28;108989;-76
2020/12/29 04:08:30;;;;;;;10.75;6.38;;;;;;;7.86;57.97;98092.56;4936407;28;109149;-75
2020/12/29 04:10:57;;;;;;;7.57;5.88;;;;;;;7.86;58.00;98097.81;4935273;28;122469;-74
2020/12/29 04:13:23;;;;;;;9.02;5.97;;;;;;;7.85;57.82;98101.41;4936441;28;123901;-76
2020/12/29 04:15:50;;;;;;;7.88;5.63;;;;;;;7.84;57.70;98099.75;4936722;28;109465;-75
2020/12/29 04:18:16;;;;;;;10.02;5.82;;;;;;;7.84;58.21;98094.47;4935186;28;109153;-76
2020/12/29 04:20:43;;;;;;;8.30;6.18;;;;;;;7.83;57.96;98092.78;4933676;28;123978;-75
2020/12/29 04:23:09;;;;;;;8.65;5.85;;;;;;;7.86;58.39;98103.09;4934032;28;124240;-75
2020/12/29 04:25:36;;;;;;;10.23;5.82;;;;;;;7.88;58.17;98101.19;4935153;28;110450;-75
2020/12/29 04:28:03;;;;;;;11.45;6.22;;;;;;;7.89;58.24;98105.50;4935901;28;109673;-75
2020/12/29 04:30:29;;;;;;;9.05;6.30;;;;;;;7.89;58.11;98102.00;4935055;28;123891;-75
2020/12/29 04:32:56;;;;;;;10.38;6.30;;;;;;;7.88;58.33;98109.09;4934445;28;123921;-76
2020/12/29 04:35:22;;;;;;;8.68;6.35;;;;;;;7.90;58.04;98112.44;4932479;28;109710;-75
2020/12/29 04:37:49;;;;;;;8.80;6.22;;;;;;;7.92;58.02;98110.50;4930814;28;108853;-76
2020/12/29 04:40:16;;;;;;;10.32;6.40;;;;;;;7.92;58.19;98107.88;4935726;28;123256;-75
2020/12/29 04:42:42;;;;;;;14.50;7.05;;;;;;;7.93;58.36;98112.22;4931905;28;122661;-76
2020/12/29 04:45:09;;;;;;;12.40;6.57;;;;;;;7.93;58.05;98120.13;4933933;28;109331;-76
2020/12/29 04:47:36;;;;;;;9.10;6.50;;;;;;;7.96;58.08;98119.84;4936682;28;107952;-76
2020/12/29 04:50:03;;;;;;;12.57;6.95;;;;;;;7.98;58.27;98117.94;4934352;28;123800;-75
2020/12/29 04:52:30;;;;;;;7.97;6.80;;;;;;;8.00;58.49;98125.72;4934551;28;123949;-76
2020/12/29 04:54:57;;;;;;;9.93;7.25;;;;;;;8.01;58.11;98129.22;4933866;28;109097;-75
2020/12/29 04:57:24;;;;;;;11.95;6.63;;;;;;;8.02;58.12;98128.25;4935994;28;108653;-75
2020/12/29 04:59:53;;;;;;;12.80;7.38;;;;;;;8.03;58.39;98129.94;4934341;28;123551;-76
2020/12/29 05:02:19;;;;;;;11.95;7.05;;;;;;;8.02;58.13;98125.63;4936074;28;123499;-75
2020/12/29 05:04:46;;;;;;;9.10;6.65;;;;;;;8.03;58.16;98135.22;4935932;28;108967;-75
2020/12/29 05:07:13;;;;;;;12.55;7.03;;;;;;;8.04;58.14;98142.13;4936856;28;109486;-76
2020/12/29 05:09:43;;;;;;;11.68;7.28;;;;;;;8.05;58.13;98143.84;4934553;28;124240;-75
2020/12/29 05:12:10;;;;;;;12.02;7.30;;;;;;;8.07;58.26;98147.19;4933629;28;122957;-76
2020/12/29 05:14:37;;;;;;;12.88;7.13;;;;;;;8.06;58.19;98156.03;4932674;28;110740;-75
2020/12/29 05:17:03;;;;;;;8.60;6.75;;;;;;;8.06;58.18;98156.03;4939907;28;110570;-75
2020/12/29 05:19:32;;;;;;;10.80;7.13;;;;;;;8.05;58.66;98154.38;4935017;28;122222;-75
2020/12/29 05:21:59;;;;;;;11.52;7.32;;;;;;;8.07;58.51;98163.00;4931009;28;123890;-75
2020/12/29 05:24:26;;;;;;;8.82;6.93;;;;;;;8.08;58.30;98168.16;4931037;28;109426;-75
2020/12/29 05:26:55;;;;;;;11.18;7.30;;;;;;;8.09;58.58;98171.63;4935566;28;108855;-75
2020/12/29 05:29:22;;;;;;;11.88;7.47;;;;;;;8.09;58.23;98182.16;4934178;28;123424;-76
2020/12/29 05:31:50;;;;;;;10.05;7.38;;;;;;;8.08;58.38;98180.47;4935763;28;124384;-75
2020/12/29 05:34:19;;;;;;;9.73;7.35;;;;;;;8.06;58.15;98182.41;4931696;28;108319;-76
2020/12/29 05:36:46;;;;;;;13.55;7.85;;;;;;;8.06;58.15;98187.66;4936075;28;108738;-75
2020/12/29 05:39:13;;;;;;;13.18;7.55;;;;;;;8.03;58.25;98190.56;4917064;28;123881;-75
2020/12/29 05:41:49;;;;;;;10.10;7.07;;;;;;;8.02;58.45;98186.22;4934673;28;123670;-75
2020/12/29 05:44:23;;;;;;;;;;;;;;;7.99;57.90;98190.78;4932749;28;109013;-75
2020/12/29 05:46:50;;;;;;;11.43;6.82;;;;;;;7.99;57.98;98198.69;4934916;28;107947;-76
2020/12/29 05:49:18;;;;;;;11.60;7.13;;;;;;;7.97;58.10;98195.34;4933097;28;123510;-75
2020/12/29 05:51:50;;;;;;;9.63;7.07;;;;;;;7.96;58.38;98204.19;4931779;28;123827;-76
2020/12/29 05:54:21;;;;;;;11.68;7.95;;;;;;;7.97;58.57;98205.88;4928930;28;108048;-75
2020/12/29 05:56:48;;;;;;;11.57;7.53;;;;;;;7.97;58.26;98203.25;4937769;28;109320;-75
2020/12/29 05:59:15;;;;;;;12.60;7.32;;;;;;;7.96;58.36;98208.63;4934112;28;124623;-75
2020/12/29 06:01:48;;;;;;;12.75;8.25;;;;;;;7.97;58.30;98216.44;4935714;28;123662;-75
2020/12/29 06:04:15;;;;;;;13.55;8.35;;;;;;;7.96;58.41;98214.72;4935457;28;109593;-75
2020/12/29 06:06:46;;;;;;;12.70;8.13;;;;;;;7.95;58.35;98213.06;4936419;28;109958;-74
2020/12/29 06:09:18;;;;;;;11.02;8.13;;;;;;;7.96;58.67;98214.72;4937151;28;124406;-74
2020/12/29 06:11:47;;;;;;;14.27;8.45;;;;;;;7.97;58.71;98219.06;4938086;28;123636;-75
2020/12/29 06:14:20;;;;;;;16.85;9.23;;;;;;;7.96;58.46;98225.28;4937464;28;109634;-76
2020/12/29 06:16:47;;;;;;;16.67;8.63;;;;;;;7.97;58.44;98216.44;4938352;28;109050;-74
2020/12/29 06:19:30;;;;;;;14.55;9.43;;;;;;;7.98;58.52;98233.91;4934467;28;123411;-74
2020/12/29 06:22:09;;;;;;;12.02;8.75;;;;;;;7.99;58.55;98240.88;4927163;28;123390;-75
2020/12/29 06:24:41;;;;;;;17.58;9.07;;;;;;;7.99;58.78;98240.88;4936735;28;109581;-75
2020/12/29 06:27:10;;;;;;;13.55;9.05;;;;;;;7.98;58.60;98244.44;4936761;28;108845;-75
2020/12/29 06:29:42;;;;;;;14.43;9.25;;;;;;;7.98;58.76;98244.44;4936198;28;124270;-75
2020/12/29 06:32:13;;;;;;;12.98;9.38;;;;;;;8.00;58.48;98252.25;4936154;28;123751;-74
2020/12/29 06:34:41;;;;;;;14.85;9.48;;;;;;;8.01;58.80;98247.81;4942523;28;108475;-75
2020/12/29 06:37:25;;;;;;;14.95;9.23;;;;;;;7.98;58.65;98252.34;4935379;28;108633;-76
2020/12/29 06:40:02;;;;;;;14.30;10.05;;;;;;;7.98;58.63;98249.72;4936818;28;122810;-75
2020/12/29 06:42:29;;;;;;;16.88;9.48;;;;;;;7.99;58.59;98261.13;4952048;28;123594;-75
2020/12/29 06:44:57;;;;;;;16.23;10.43;;;;;;;7.99;58.82;98261.94;4958688;28;109158;-76
2020/12/29 06:47:26;;;;;;;15.35;10.35;;;;;;;8.02;58.69;98267.94;4945554;28;109612;-75
2020/12/29 06:49:53;;;;;;;17.83;10.50;;;;;;;8.01;58.81;98269.75;4940531;28;124201;-75
2020/12/29 06:52:23;;;;;;;16.73;9.93;;;;;;;8.01;58.96;98275.03;4938499;28;123990;-75
2020/12/29 06:54:54;;;;;;;17.33;9.90;;;;;;;8.02;58.76;98275.84;4932935;28;110419;-75
2020/12/29 06:57:33;;;;;;;17.80;9.57;;;;;;;8.01;58.80;98287.38;4925949;28;107722;-76
2020/12/29 07:00:12;;;;;;;15.48;10.15;;;;;;;8.01;58.56;98287.38;4936919;28;123995;-76
2020/12/29 07:02:40;;;;;;;17.55;9.80;;;;;;;8.02;59.00;98291.66;4931007;28;124463;-75
2020/12/29 07:05:25;;;;;;;13.65;9.52;;;;;;;8.01;58.82;98290.84;4935969;28;108310;-76
2020/12/29 07:07:57;;;;;;;15.82;9.85;;;;;;;8.02;58.71;98299.56;4936449;28;108141;-75
2020/12/29 07:10:41;;;;;;;14.40;9.65;;;;;;;8.01;58.66;98305.81;4937817;28;124657;-76
2020/12/29 07:13:13;;;;;;;14.43;8.98;;;;;;;8.02;58.73;98315.38;4937048;28;123005;-76
2020/12/29 07:15:47;;;;;;;13.48;8.85;;;;;;;8.03;58.99;98309.16;4938625;28;109516;-75
2020/12/29 07:18:23;;;;;;;12.27;9.07;;;;;;;8.02;58.76;98318.03;4938953;28;109184;-76
2020/12/29 07:20:52;;;;;;;14.20;9.15;;;;;;;8.03;58.77;98319.72;4936334;28;122781;-75
2020/12/29 07:23:20;;;;;;;18.30;8.43;;;;;;;8.02;58.71;98333.84;4935003;28;123050;-75
2020/12/29 07:25:52;;;;;;;14.45;9.23;;;;;;;8.02;58.71;98339.09;4936230;28;108158;-75
2020/12/29 07:28:28;;;;;;;13.63;8.77;;;;;;;7.99;58.89;98346.28;4934547;28;108709;-75
2020/12/29 07:30:55;;;;;;;12.95;8.18;;;;;;;8.01;58.77;98353.25;4941057;28;124692;-75
2020/12/29 07:33:23;;;;;;;13.30;8.63;;;;;;;7.99;58.70;98356.84;4936883;28;123046;-75
2020/12/29 07:35:51;;;;;;;13.63;8.43;;;;;;;7.99;58.77;98356.84;4934967;28;109423;-75
2020/12/29 07:38:26;;;;;;;15.43;8.15;;;;;;;7.98;58.94;98355.13;4936547;28;109238;-75
2020/12/29 07:40:53;;;;;;;16.15;8.93;;;;;;;7.98;59.00;98360.41;4927313;28;121934;-75
2020/12/29 07:43:20;;;;;;;13.90;8.32;;;;;;;7.98;58.65;98357.78;4933855;28;122617;-76
2020/12/29 07:45:47;;;;;;;16.15;8.88;;;;;;;7.99;58.97;98362.09;4937302;28;110555;-75
2020/12/29 07:48:13;;;;;;;20.13;8.77;;;;;;;7.98;58.75;98356.94;4938363;28;109787;-75
2020/12/29 07:50:40;;;;;;;16.95;9.15;;;;;;;7.98;58.64;98367.50;4938035;28;124076;-75
2020/12/29 07:53:10;;;;;;;17.20;9.23;;;;;;;7.97;58.83;98374.56;4931350;28;122752;-75
2020/12/29 07:55:40;;;;;;;15.82;8.70;;;;;;;7.97;58.87;98385.09;4939507;28;108551;-75
2020/12/29 07:58:08;;;;;;;15.40;9.00;;;;;;;7.96;58.98;98386.03;4936550;28;107870;-75
2020/12/29 08:00:37;;;;;;;19.10;9.68;;;;;;;7.97;58.84;98390.38;4935754;28;124704;-76
2020/12/29 08:03:04;;;;;;;17.02;9.40;;;;;;;7.97;58.85;98390.38;4936056;28;123734;-75
2020/12/29 08:05:32;;;;;;;15.82;9.73;;;;;;;7.99;58.92;98403.44;4936007;28;109208;-75
2020/12/29 08:08:01;;;;;;;16.75;9.75;;;;;;;8.01;58.65;98411.25;4935776;28;110269;-75
2020/12/29 08:10:33;;;;;;;19.23;10.27;;;;;;;8.01;58.56;98427.06;4933543;28;124027;-75
2020/12/29 08:13:05;;;;;;;18.08;9.90;;;;;;;8.01;58.80;98427.91;4934112;28;123568;-75
2020/12/29 08:15:40;;;;;;;18.65;10.48;;;;;;;8.02;58.65;98436.63;4932188;28;109238;-75
2020/12/29 08:18:19;;;;;;;19.88;10.70;;;;;;;7.99;58.73;98438.53;4932115;28;110016;-75
2020/12/29 08:20:48;;;;;;;21.52;9.90;;;;;;;8.01;58.58;98442.88;4932951;28;123967;-76
2020/12/29 08:23:17;;;;;;;19.52;10.18;;;;;;;7.99;58.63;98450.88;4935889;28;123133;-76
2020/12/29 08:25:58;;;;;;;18.10;10.13;;;;;;;7.97;59.01;98443.09;4933330;28;108875;-76
2020/12/29 08:28:34;;;;;;;19.48;10.50;;;;;;;7.97;58.88;98447.53;4936022;28;109958;-75
2020/12/29 08:31:01;;;;;;;;;;;;;;;7.95;58.83;98457.34;4934456;28;123915;-76
2020/12/29 08:33:29;;;;;;;18.10;9.75;;;;;;;7.96;58.57;98459.84;4936004;28;124408;-76
2020/12/29 08:36:01;;;;;;;19.73;10.13;;;;;;;7.95;58.51;98460.81;4937352;28;110253;-75
2020/12/29 08:38:29;;;;;;;16.58;10.30;;;;;;;7.95;58.93;98468.72;4928468;28;110698;-75
2020/12/29 08:41:05;;;;;;;19.38;10.75;;;;;;;7.93;59.10;98468.00;4930782;28;123982;-77
2020/12/29 08:43:40;;;;;;;18.33;10.27;;;;;;;7.93;58.85;98473.25;4931434;28;123529;-74
2020/12/29 08:46:08;;;;;;;17.45;10.85;;;;;;;7.95;58.86;98471.34;4925427;28;108981;-75
2020/12/29 08:48:36;;;;;;;22.83;10.77;;;;;;;7.98;59.32;98486.94;4930719;28;110167;-75
2020/12/29 08:51:25;;;;;;;19.85;10.23;;;;;;;8.01;58.89;98479.78;4929210;28;123629;-75
2020/12/29 08:53:52;;;;;;;19.95;10.55;;;;;;;8.04;59.21;98485.63;4934961;28;123915;-76
2020/12/29 08:56:26;;;;;;;17.70;10.13;;;;;;;8.06;59.16;98490.81;4954341;22;108936;-69
2020/12/29 08:58:53;;;;;;;17.30;9.88;;;;;;;8.06;58.89;98493.44;4919946;28;110283;-69
2020/12/29 09:01:34;;;;;;;18.85;10.38;;;;;;;8.07;59.12;98500.41;4944904;28;123734;-69
2020/12/29 09:04:29;;;;;;;18.50;9.70;;;;;;;8.06;59.01;98501.34;4937980;28;124954;-70
2020/12/29 09:06:56;;;;;;;17.33;10.55;;;;;;;8.08;58.83;98512.63;4936508;28;109243;-70
2020/12/29 09:09:23;;;;;;;17.38;11.27;;;;;;;8.06;59.04;98520.66;4915864;28;110254;-69
2020/12/29 09:12:04;;;;;;;18.10;11.30;;;;;;;8.05;59.04;98518.97;4913513;28;123593;-69
2020/12/29 09:14:30;;;;;;;20.38;11.20;;;;;;;8.06;58.96;98525.06;4913018;28;122563;-69
2020/12/29 09:17:05;;;;;;;16.60;10.77;;;;;;;8.07;60.73;98532.03;4921854;28;108292;-73
2020/12/29 09:19:34;;;;;;;21.27;11.43;;;;;;;8.02;62.21;98539.44;4910861;28;110406;-68
2020/12/29 09:22:11;;;;;;;17.65;11.52;;;;;;;8.16;61.14;98539.28;4910978;28;122611;-71
2020/12/29 09:24:56;;;;;;;20.23;10.95;;;;;;;8.23;60.10;98545.81;4937820;28;123675;-71
2020/12/29 09:27:32;;;;;;;16.70;10.75;;;;;;;8.22;59.78;98545.91;4916476;28;111027;-71
2020/12/29 09:30:11;;;;;;;20.02;11.82;;;;;;;8.22;59.71;98557.31;4916577;28;109589;-70
2020/12/29 09:32:38;;;;;;;20.65;11.35;;;;;;;8.22;59.52;98562.56;4905712;28;122664;-70
2020/12/29 09:35:25;;;;;;;19.98;11.15;;;;;;;8.23;59.77;98560.78;4923137;28;123936;-70
2020/12/29 09:38:00;;;;;;;19.55;11.82;;;;;;;8.20;59.49;98564.47;4919702;28;110114;-71
2020/12/29 09:40:28;;;;;;;19.33;11.85;;;;;;;8.21;59.57;98566.16;4905784;28;109878;-71
2020/12/29 09:42:55;;;;;;;18.08;11.55;;;;;;;8.22;59.92;98582.84;4899010;28;123899;-69
2020/12/29 09:45:24;;;;;;;19.13;12.27;;;;;;;8.24;59.35;98584.41;4911862;28;123913;-69
2020/12/29 09:47:51;;;;;;;18.60;11.75;;;;;;;8.23;59.83;98590.66;4920365;28;109498;-70
2020/12/29 09:50:18;;;;;;;21.65;12.55;;;;;;;8.24;59.53;98602.84;4923578;28;109901;-69
2020/12/29 09:52:44;;;;;;;21.92;13.00;;;;;;;8.25;59.69;98609.84;4921873;28;123161;-70
2020/12/29 09:55:11;;;;;;;28.70;14.50;;;;;;;8.26;59.37;98613.31;4933179;28;123843;-70
2020/12/29 09:57:37;;;;;;;21.42;13.10;;;;;;;8.24;59.80;98618.69;4919525;28;109156;-70
2020/12/29 10:00:06;;;;;;;26.45;14.43;;;;;;;8.25;59.62;98620.38;4914104;28;109901;-71
2020/12/29 10:02:38;;;;;;;23.42;15.10;;;;;;;8.24;59.28;98629.22;4920903;28;124640;-69
2020/12/29 10:05:05;;;;;;;24.58;16.00;;;;;;;8.21;59.64;98634.72;4911404;28;123636;-71
2020/12/29 10:07:31;;;;;;;25.38;16.17;;;;;;;8.21;59.85;98645.25;4912008;28;109064;-71
2020/12/29 10:09:58;;;;;;;26.83;16.95;;;;;;;8.20;59.52;98640.94;4897912;28;108949;-70
2020/12/29 10:12:24;;;;;;;26.88;16.50;;;;;;;8.21;59.83;98650.53;4934606;28;124845;-70
2020/12/29 10:14:51;;;;;;;32.88;18.95;;;;;;;8.21;59.47;98650.53;4934479;28;122741;-71
2020/12/29 10:17:18;;;;;;;29.58;18.52;;;;;;;8.20;59.57;98648.88;4935395;28;109355;-70
2020/12/29 10:19:45;;;;;;;32.13;19.73;;;;;;;8.21;59.56;98650.53;4920667;28;109658;-70
2020/12/29 10:22:12;;;;;;;33.00;20.33;;;;;;;8.23;59.79;98653.94;4917417;28;123884;-71
2020/12/29 10:24:38;;;;;;;30.63;19.80;;;;;;;8.24;59.66;98660.88;4915615;28;123543;-70
2020/12/29 10:27:05;;;;;;;35.08;21.02;;;;;;;8.25;59.98;98662.56;4924662;28;110066;-70
2020/12/29 10:29:32;;;;;;;37.67;22.30;;;;;;;8.27;59.66;98659.81;4922372;28;108846;-71
2020/12/29 10:31:58;;;;;;;36.45;22.23;;;;;;;8.28;59.73;98667.59;4915952;28;125224;-69
2020/12/29 10:34:25;;;;;;;36.30;21.95;;;;;;;8.29;59.71;98671.94;4924053;28;122784;-71
2020/12/29 10:36:51;;;;;;;39.53;22.92;;;;;;;8.31;59.86;98667.41;4928085;28;109241;-69
2020/12/29 10:39:18;;;;;;;39.20;23.60;;;;;;;8.33;60.16;98670.78;4901095;28;110212;-71
2020/12/29 10:41:44;;;;;;;42.40;22.85;;;;;;;8.36;59.93;98673.19;4903834;28;124214;-71
2020/12/29 10:44:11;;;;;;;38.30;23.52;;;;;;;8.38;59.79;98673.94;4905229;28;123640;-71
2020/12/29 10:46:38;;;;;;;38.40;23.25;;;;;;;8.40;60.07;98668.56;4903494;28;109520;-70
2020/12/29 10:49:05;;;;;;;38.38;23.30;;;;;;;8.42;59.89;98673.72;4915721;28;108911;-71
2020/12/29 10:51:32;;;;;;;37.42;24.10;;;;;;;8.44;60.00;98677.09;4902946;28;123984;-70
2020/12/29 10:53:58;;;;;;;43.97;25.35;;;;;;;8.44;60.04;98682.38;4930830;28;124340;-71
2020/12/29 10:56:25;;;;;;;41.55;24.30;;;;;;;8.45;60.08;98689.34;4922546;28;109083;-70
2020/12/29 10:58:51;;;;;;;42.70;25.55;;;;;;;8.45;59.95;98684.06;4933472;28;110075;-70
2020/12/29 11:01:20;;;;;;;44.42;26.63;;;;;;;8.47;59.87;98687.44;4904596;28;123769;-69
2020/12/29 11:03:47;;;;;;;41.55;26.65;;;;;;;8.48;59.92;98694.41;4901720;28;123841;-70
2020/12/29 11:06:15;;;;;;;43.65;27.55;;;;;;;8.50;59.78;98697.78;4907499;28;110210;-69
2020/12/29 11:08:42;;;;;;;46.00;28.83;;;;;;;8.51;59.87;98699.47;4913253;28;109804;-69
2020/12/29 11:11:09;;;;;;;48.30;28.13;;;;;;;8.53;59.76;98703.69;4914098;28;122816;-70
2020/12/29 11:13:36;;;;;;;48.38;28.25;;;;;;;8.54;60.08;98704.53;4909990;28;123999;-70
2020/12/29 11:16:03;;;;;;;49.58;28.60;;;;;;;8.56;59.95;98707.91;4920686;28;108265;-71
2020/12/29 11:18:29;;;;;;;49.08;30.35;;;;;;;8.56;60.24;98707.91;4924156;28;109778;-71
2020/12/29 11:20:56;;;;;;;48.97;28.75;;;;;;;8.56;60.33;98707.91;4907096;28;123030;-71
2020/12/29 11:23:23;;;;;;;49.67;29.42;;;;;;;8.57;60.05;98707.78;4915819;28;124385;-71
2020/12/29 11:25:50;;;;;;;44.50;27.65;;;;;;;8.59;60.23;98723.53;4915276;28;109093;-71
2020/12/29 11:28:17;;;;;;;43.60;26.90;;;;;;;8.62;60.00;98718.00;4914219;28;110174;-70
2020/12/29 11:30:44;;;;;;;39.45;25.88;;;;;;;8.64;59.90;98721.38;4917501;28;123845;-70
2020/12/29 11:33:11;;;;;;;38.03;26.05;;;;;;;8.65;60.06;98723.06;4919494;28;124358;-70